createdAt,value
2023-11-20T00:01:27.551Z,2.21
2023-11-20T00:04:00.446Z,2.16
2023-11-20T00:06:33.682Z,2.09
2023-11-20T00:09:10.478Z,2.01
2023-11-20T00:11:47.692Z,1.88
2023-11-20T00:14:20.098Z,1.74
2023-11-20T00:16:54.941Z,1.61
2023-11-20T00:19:29.905Z,1.46
2023-11-20T00:22:03.569Z,1.42
2023-11-20T00:24:35.790Z,1.37
2023-11-20T00:27:08.671Z,1.33
2023-11-20T00:29:41.215Z,1.27
2023-11-20T00:32:19.391Z,1.16
2023-11-20T00:34:55.150Z,1.09
2023-11-20T00:37:28.350Z,1.07
2023-11-20T00:40:08.986Z,1.04
2023-11-20T00:46:15.397Z,0.83
2023-11-20T00:48:49.345Z,0.79
2023-11-20T00:51:27.021Z,0.77
2023-11-20T00:53:56.741Z,0.77
2023-11-20T00:56:30.075Z,0.74
2023-11-20T00:59:04.860Z,0.68
2023-11-20T01:01:40.475Z,0.68
2023-11-20T01:04:13.066Z,0.63
2023-11-20T01:06:49.105Z,0.60
2023-11-20T01:09:24.056Z,0.51
2023-11-20T01:12:00.062Z,0.45
2023-11-20T01:14:34.776Z,0.36
2023-11-20T01:17:08.006Z,0.31
2023-11-20T01:19:40.159Z,0.34
2023-11-20T01:22:17.800Z,0.35
2023-11-20T01:24:49.756Z,0.31
2023-11-20T01:27:26.807Z,0.23
2023-11-20T01:30:02.796Z,0.24
2023-11-20T01:32:36.050Z,0.32
2023-11-20T01:35:10.511Z,0.34
2023-11-20T01:37:45.580Z,0.39
2023-11-20T01:40:17.924Z,0.39
2023-11-20T01:42:50.551Z,0.36
2023-11-20T01:45:25.560Z,0.36
2023-11-20T01:47:58.898Z,0.41
2023-11-20T01:50:36.629Z,0.42
2023-11-20T01:53:12.976Z,0.38
2023-11-20T01:55:44.852Z,0.37
2023-11-20T01:58:22.990Z,0.31
2023-11-20T02:00:52.566Z,0.33
2023-11-20T02:03:26.191Z,0.32
2023-11-20T02:05:57.943Z,0.26
2023-11-20T02:08:31.259Z,0.23
2023-11-20T02:11:03.969Z,0.28
2023-11-20T02:13:39.043Z,0.25
2023-11-20T02:16:15.254Z,0.21
2023-11-20T02:18:48.489Z,0.24
2023-11-20T02:21:23.218Z,0.26
2023-11-20T02:24:00.519Z,0.22
2023-11-20T02:27:15.021Z,0.24
2023-11-20T02:29:55.237Z,0.29
2023-11-20T02:32:26.857Z,0.39
2023-11-20T02:34:59.072Z,0.40
2023-11-20T02:37:32.439Z,0.49
2023-11-20T02:40:10.047Z,0.52
2023-11-20T02:42:45.774Z,0.50
2023-11-20T02:45:19.686Z,0.48
2023-11-20T02:47:57.149Z,0.41
2023-11-20T02:50:31.970Z,0.42
2023-11-20T02:53:10.291Z,0.40
2023-11-20T02:55:41.927Z,0.41
2023-11-20T02:58:14.141Z,0.43
2023-11-20T03:00:47.824Z,0.35
2023-11-20T03:03:25.727Z,0.37
2023-11-20T03:06:01.506Z,0.39
2023-11-20T03:08:37.481Z,0.50
2023-11-20T03:11:13.333Z,0.56
2023-11-20T03:13:47.616Z,0.78
2023-11-20T03:16:20.481Z,0.94
2023-11-20T03:18:52.490Z,0.96
2023-11-20T03:21:27.605Z,1.11
2023-11-20T03:23:58.120Z,1.21
2023-11-20T03:26:33.867Z,1.23
2023-11-20T03:29:07.019Z,1.23
2023-11-20T03:31:40.915Z,1.32
2023-11-20T03:34:16.038Z,1.32
2023-11-20T03:36:48.403Z,1.35
2023-11-20T03:39:25.268Z,1.66
2023-11-20T03:42:03.739Z,1.78
2023-11-20T03:47:14.478Z,2.03
2023-11-20T03:49:49.238Z,2.07
2023-11-20T03:52:21.155Z,2.34
2023-11-20T03:54:55.335Z,2.51
2023-11-20T03:57:31.056Z,2.41
2023-11-20T04:00:06.638Z,2.47
2023-11-20T04:02:39.834Z,2.59
2023-11-20T04:05:12.654Z,2.55
2023-11-20T04:07:49.599Z,2.68
2023-11-20T04:10:23.934Z,2.80
2023-11-20T04:12:55.814Z,2.74
2023-11-20T04:15:28.056Z,2.72
2023-11-20T04:18:03.144Z,2.54
2023-11-20T04:20:39.924Z,2.50
2023-11-20T04:23:19.248Z,2.47
2023-11-20T04:25:51.637Z,2.37
2023-11-20T04:28:28.687Z,2.31
2023-11-20T04:31:03.291Z,2.21
2023-11-20T04:33:37.504Z,2.05
2023-11-20T04:36:10.961Z,2.05
2023-11-20T04:38:43.464Z,2.01
2023-11-20T04:41:15.554Z,1.96
2023-11-20T04:43:48.351Z,1.93
2023-11-20T04:46:20.237Z,1.86
2023-11-20T04:48:53.801Z,1.88
2023-11-20T04:51:28.487Z,1.88
2023-11-20T04:54:03.378Z,1.79
2023-11-20T04:56:39.231Z,1.72
2023-11-20T04:59:11.322Z,1.59
2023-11-20T05:01:46.298Z,1.58
2023-11-20T05:04:19.927Z,1.48
2023-11-20T05:06:52.122Z,1.41
2023-11-20T05:09:26.301Z,1.33
2023-11-20T05:12:05.282Z,1.31
2023-11-20T05:14:42.517Z,1.25
2023-11-20T05:17:19.841Z,1.17
2023-11-20T05:19:53.297Z,1.20
2023-11-20T05:22:31.189Z,1.23
2023-11-20T05:25:08.818Z,1.19
2023-11-20T05:27:45.666Z,1.09
2023-11-20T05:30:18.153Z,1.10
2023-11-20T05:32:55.096Z,0.98
2023-11-20T05:35:28.513Z,0.99
2023-11-20T05:38:04.055Z,0.96
2023-11-20T05:40:36.317Z,0.93
2023-11-20T05:43:11.273Z,0.94
2023-11-20T05:45:43.583Z,1.08
2023-11-20T05:48:18.661Z,1.08
2023-11-20T05:50:52.248Z,1.07
2023-11-20T05:53:27.165Z,1.20
2023-11-20T05:56:05.255Z,1.20
2023-11-20T05:58:39.144Z,1.30
2023-11-20T06:01:11.793Z,1.52
2023-11-20T06:03:49.634Z,1.73
2023-11-20T06:06:25.748Z,1.86
2023-11-20T06:09:00.024Z,1.93
2023-11-20T06:11:34.819Z,2.01
2023-11-20T06:14:09.159Z,2.22
2023-11-20T06:16:44.756Z,2.65
2023-11-20T06:19:23.484Z,2.68
2023-11-20T06:21:58.511Z,2.72
2023-11-20T06:24:35.301Z,2.87
2023-11-20T06:27:10.515Z,2.98
2023-11-20T06:29:47.751Z,3.11
2023-11-20T06:32:19.769Z,3.23
2023-11-20T06:34:54.043Z,3.40
2023-11-20T06:37:27.447Z,3.69
2023-11-20T06:40:09.782Z,4.00
2023-11-20T06:42:45.605Z,4.24
2023-11-20T06:47:14.535Z,4.67
2023-11-20T06:49:46.748Z,4.88
2023-11-20T06:52:20.959Z,5.12
2023-11-20T06:54:55.865Z,5.44
2023-11-20T06:57:31.005Z,5.75
2023-11-20T07:00:07.488Z,6.03
2023-11-20T07:02:40.842Z,6.19
2023-11-20T07:05:18.925Z,6.28
2023-11-20T07:07:56.851Z,6.57
2023-11-20T07:10:29.106Z,6.83
2023-11-20T07:13:06.317Z,7.03
2023-11-20T07:15:42.439Z,7.21
2023-11-20T07:18:16.170Z,7.46
2023-11-20T07:20:48.244Z,7.68
2023-11-20T07:23:20.124Z,7.91
2023-11-20T07:25:57.563Z,8.15
2023-11-20T07:28:29.569Z,8.31
2023-11-20T07:31:01.340Z,8.44
2023-11-20T07:33:34.812Z,8.57
2023-11-20T07:36:11.322Z,8.74
2023-11-20T07:38:45.296Z,8.93
2023-11-20T07:41:20.134Z,9.08
2023-11-20T07:43:54.915Z,9.18
2023-11-20T07:46:39.057Z,9.32
2023-11-20T07:49:12.525Z,9.45
2023-11-20T07:51:44.889Z,9.62
2023-11-20T07:54:17.254Z,9.75
2023-11-20T07:56:50.037Z,9.95
2023-11-20T07:59:25.130Z,10.15
2023-11-20T08:02:02.499Z,10.35
2023-11-20T08:04:36.391Z,10.48
2023-11-20T08:07:06.673Z,10.57
2023-11-20T08:09:37.349Z,10.71
2023-11-20T08:12:08.264Z,10.85
2023-11-20T08:14:38.729Z,11.00
2023-11-20T08:17:13.643Z,11.10
2023-11-20T08:19:47.768Z,11.23
2023-11-20T08:22:19.085Z,11.27
2023-11-20T08:24:49.031Z,11.30
2023-11-20T08:27:19.073Z,11.37
2023-11-20T08:29:48.967Z,11.36
2023-11-20T08:32:19.047Z,11.38
2023-11-20T08:34:50.484Z,11.34
2023-11-20T08:37:20.581Z,11.35
2023-11-20T08:39:51.428Z,11.28
2023-11-20T08:42:21.765Z,11.23
2023-11-20T08:44:54.991Z,11.18
2023-11-20T08:47:25.154Z,11.20
2023-11-20T08:49:56.815Z,11.24
2023-11-20T08:52:26.795Z,11.37
2023-11-20T08:54:57.259Z,11.51
2023-11-20T08:57:27.166Z,11.58
2023-11-20T08:59:57.085Z,11.49
2023-11-20T09:02:27.238Z,11.51
2023-11-20T09:04:58.575Z,11.67
2023-11-20T09:07:28.503Z,11.85
2023-11-20T09:09:58.464Z,11.99
2023-11-20T09:12:28.350Z,11.96
2023-11-20T09:14:58.215Z,11.91
2023-11-20T09:17:28.064Z,11.91
2023-11-20T09:19:59.532Z,11.95
2023-11-20T09:22:29.404Z,12.07
2023-11-20T09:25:05.357Z,12.24
2023-11-20T09:27:36.375Z,12.38
2023-11-20T09:30:08.236Z,12.58
2023-11-20T09:32:38.175Z,12.69
2023-11-20T09:35:12.094Z,12.81
2023-11-20T09:37:42.101Z,12.85
2023-11-20T09:40:15.023Z,12.88
2023-11-20T09:42:45.620Z,12.88
2023-11-20T09:47:12.950Z,12.84
2023-11-20T09:49:46.744Z,12.92
2023-11-20T09:52:17.180Z,12.86
2023-11-20T09:54:47.734Z,12.71
2023-11-20T09:57:23.005Z,12.66
2023-11-20T09:59:52.968Z,12.68
2023-11-20T10:02:24.673Z,12.67
2023-11-20T10:04:57.344Z,12.71
2023-11-20T10:07:31.782Z,12.80
2023-11-20T10:10:03.396Z,12.73
2023-11-20T10:12:36.649Z,12.77
2023-11-20T10:15:08.669Z,12.83
2023-11-20T10:17:41.086Z,12.81
2023-11-20T10:20:12.119Z,12.75
2023-11-20T10:22:42.001Z,12.67
2023-11-20T10:25:12.931Z,12.65
2023-11-20T10:27:44.509Z,12.55
2023-11-20T10:30:15.758Z,12.54
2023-11-20T10:32:47.927Z,12.59
2023-11-20T10:35:19.815Z,12.57
2023-11-20T10:37:59.560Z,12.44
2023-11-20T10:40:29.780Z,12.41
2023-11-20T10:43:00.411Z,12.45
2023-11-20T10:45:30.444Z,12.58
2023-11-20T10:48:01.936Z,12.65
2023-11-20T10:50:36.587Z,12.60
2023-11-20T10:53:08.785Z,12.63
2023-11-20T10:55:45.250Z,12.59
2023-11-20T10:58:15.590Z,12.48
2023-11-20T11:00:46.380Z,12.32
2023-11-20T11:03:19.337Z,12.20
2023-11-20T11:05:50.806Z,12.17
2023-11-20T11:08:23.922Z,12.20
2023-11-20T11:10:56.539Z,12.24
2023-11-20T11:13:30.680Z,12.18
2023-11-20T11:16:01.758Z,12.13
2023-11-20T11:18:36.500Z,12.10
2023-11-20T11:21:12.231Z,11.95
2023-11-20T11:23:51.128Z,11.96
2023-11-20T11:26:28.342Z,11.98
2023-11-20T11:29:03.139Z,12.02
2023-11-20T11:31:49.672Z,12.10
2023-11-20T11:34:43.862Z,12.11
2023-11-20T11:37:27.955Z,12.04
2023-11-20T11:40:11.627Z,11.95
2023-11-20T11:42:47.919Z,11.87
2023-11-20T11:45:20.606Z,11.73
2023-11-20T11:47:52.350Z,11.67
2023-11-20T11:50:23.880Z,11.64
2023-11-20T11:52:53.763Z,11.65
2023-11-20T11:55:30.006Z,11.51
2023-11-20T11:58:04.608Z,11.49
2023-11-20T12:00:34.519Z,11.39
2023-11-20T12:03:11.034Z,11.30
2023-11-20T12:06:19.915Z,11.16
2023-11-20T12:08:55.525Z,11.08
2023-11-20T12:11:55.422Z,11.04
2023-11-20T12:14:25.352Z,11.02
2023-11-20T12:16:55.737Z,11.01
2023-11-20T12:19:26.890Z,10.99
2023-11-20T12:21:59.160Z,10.93
2023-11-20T12:24:30.621Z,10.90
2023-11-20T12:27:01.121Z,10.87
2023-11-20T12:29:33.221Z,10.87
2023-11-20T12:32:05.463Z,10.83
2023-11-20T12:34:36.222Z,10.83
2023-11-20T12:37:07.890Z,10.79
2023-11-20T12:39:38.770Z,10.75
2023-11-20T12:42:09.781Z,10.72
2023-11-20T12:47:12.774Z,10.58
2023-11-20T12:49:43.279Z,10.52
2023-11-20T12:52:14.221Z,10.51
2023-11-20T12:54:45.380Z,10.51
2023-11-20T12:57:15.284Z,10.50
2023-11-20T12:59:48.271Z,10.45
2023-11-20T13:02:25.885Z,10.44
2023-11-20T13:04:56.006Z,10.41
2023-11-20T13:07:26.353Z,10.38
2023-11-20T13:09:56.392Z,10.36
2023-11-20T13:12:26.481Z,10.36
2023-11-20T13:15:05.741Z,10.29
2023-11-20T13:17:39.120Z,10.28
2023-11-20T13:20:44.016Z,10.24
2023-11-20T13:23:24.316Z,10.20
2023-11-20T13:25:55.647Z,10.17
2023-11-20T13:28:29.150Z,10.13
2023-11-20T13:31:01.915Z,10.13
2023-11-20T13:33:34.767Z,10.09
2023-11-20T13:36:09.824Z,10.08
2023-11-20T13:38:40.477Z,10.05
2023-11-20T13:41:10.979Z,10.07
2023-11-20T13:43:41.921Z,10.04
2023-11-20T13:46:12.185Z,10.01
2023-11-20T13:48:44.005Z,9.98
2023-11-20T13:51:14.508Z,9.96
2023-11-20T13:53:45.340Z,9.92
2023-11-20T13:56:15.259Z,9.88
2023-11-20T13:58:45.980Z,9.87
2023-11-20T14:01:16.890Z,9.85
2023-11-20T14:03:48.623Z,9.79
2023-11-20T14:06:19.440Z,9.72
2023-11-20T14:08:49.979Z,9.72
2023-11-20T14:11:19.979Z,9.73
2023-11-20T14:13:51.483Z,9.71
2023-11-20T14:16:21.617Z,9.61
2023-11-20T14:18:53.013Z,9.50
2023-11-20T14:21:22.882Z,9.49
2023-11-20T14:23:52.780Z,9.48
2023-11-20T14:26:29.845Z,9.44
2023-11-20T14:29:04.692Z,9.46
2023-11-20T14:31:34.818Z,9.37
2023-11-20T14:34:06.500Z,9.37
2023-11-20T14:36:36.399Z,9.32
2023-11-20T14:39:06.747Z,9.23
2023-11-20T14:41:36.492Z,9.14
2023-11-20T14:44:06.778Z,9.03
2023-11-20T14:46:37.030Z,8.95
2023-11-20T14:49:09.930Z,8.89
2023-11-20T14:51:39.823Z,8.83
2023-11-20T14:54:10.063Z,8.83
2023-11-20T14:56:41.242Z,8.80
2023-11-20T14:59:11.401Z,8.74
2023-11-20T15:01:41.582Z,8.73
2023-11-20T15:04:13.267Z,8.67
2023-11-20T15:06:45.023Z,8.64
2023-11-20T15:09:14.863Z,8.52
2023-11-20T15:11:44.621Z,8.44
2023-11-20T15:14:15.460Z,8.41
2023-11-20T15:16:45.376Z,8.40
2023-11-20T15:19:16.738Z,8.37
2023-11-20T15:21:46.627Z,8.44
2023-11-20T15:24:16.448Z,8.48
2023-11-20T15:26:49.891Z,8.49
2023-11-20T15:29:19.751Z,8.54
2023-11-20T15:31:49.666Z,8.50
2023-11-20T15:34:21.211Z,8.43
2023-11-20T15:36:51.167Z,8.41
2023-11-20T15:39:21.458Z,8.37
2023-11-20T15:41:51.566Z,8.24
2023-11-20T15:47:12.553Z,7.99
2023-11-20T15:49:42.542Z,7.89
2023-11-20T15:52:12.954Z,7.89
2023-11-20T15:54:43.031Z,8.00
2023-11-20T15:57:13.245Z,8.04
2023-11-20T15:59:44.000Z,7.97
2023-11-20T16:02:15.358Z,7.89
2023-11-20T16:04:45.875Z,7.76
2023-11-20T16:07:16.331Z,7.58
2023-11-20T16:09:46.238Z,7.43
2023-11-20T16:12:16.633Z,7.34
2023-11-20T16:14:46.750Z,7.24
2023-11-20T16:17:18.340Z,7.19
2023-11-20T16:19:48.419Z,7.03
2023-11-20T16:22:18.416Z,6.94
2023-11-20T16:24:52.525Z,6.85
2023-11-20T16:27:22.564Z,6.73
2023-11-20T16:29:52.416Z,6.66
2023-11-20T16:32:23.886Z,6.58
2023-11-20T16:34:53.605Z,6.46
2023-11-20T16:37:23.370Z,6.37
2023-11-20T16:39:53.325Z,6.29
2023-11-20T16:42:23.239Z,6.19
2023-11-20T16:44:53.201Z,6.18
2023-11-20T16:47:24.854Z,6.02
2023-11-20T16:49:55.702Z,5.80
2023-11-20T16:52:25.900Z,5.70
2023-11-20T16:54:55.746Z,5.61
2023-11-20T16:57:25.633Z,5.50
2023-11-20T16:59:56.016Z,5.44
2023-11-20T17:02:27.465Z,5.34
2023-11-20T17:04:58.340Z,5.25
2023-11-20T17:07:28.246Z,5.20
2023-11-20T17:09:58.235Z,5.19
2023-11-20T17:12:28.101Z,5.23
2023-11-20T17:14:58.546Z,5.20
2023-11-20T17:17:29.775Z,5.10
2023-11-20T17:19:59.648Z,5.01
2023-11-20T17:22:30.717Z,4.91
2023-11-20T17:25:00.983Z,4.84
2023-11-20T17:27:30.830Z,4.78
2023-11-20T17:30:02.353Z,4.73
2023-11-20T17:32:34.347Z,4.67
2023-11-20T17:35:05.065Z,4.62
2023-11-20T17:37:34.963Z,4.50
2023-11-20T17:40:05.349Z,4.49
2023-11-20T17:42:35.765Z,4.47
2023-11-20T17:45:05.957Z,4.47
2023-11-20T17:47:37.550Z,4.45
2023-11-20T17:50:09.169Z,4.32
2023-11-20T17:52:40.812Z,4.23
2023-11-20T17:55:13.537Z,4.13
2023-11-20T17:57:43.441Z,4.08
2023-11-20T18:00:15.263Z,3.94
2023-11-20T18:02:47.975Z,3.91
2023-11-20T18:05:18.588Z,3.89
2023-11-20T18:07:48.482Z,3.86
2023-11-20T18:10:18.565Z,3.77
2023-11-20T18:12:49.179Z,3.69
2023-11-20T18:15:19.955Z,3.64
2023-11-20T18:17:50.347Z,3.57
2023-11-20T18:20:20.605Z,3.48
2023-11-20T18:22:50.496Z,3.44
2023-11-20T18:25:20.535Z,3.37
2023-11-20T18:27:51.638Z,3.30
2023-11-20T18:30:22.824Z,3.21
2023-11-20T18:32:54.059Z,3.10
2023-11-20T18:35:26.153Z,2.94
2023-11-20T18:37:56.021Z,2.93
2023-11-20T18:40:25.983Z,2.92
2023-11-20T18:42:55.761Z,2.83
2023-11-20T18:47:12.855Z,2.84
2023-11-20T18:49:44.102Z,2.83
2023-11-20T18:52:14.815Z,2.88
2023-11-20T18:54:44.604Z,2.92
2023-11-20T18:57:14.482Z,2.89
2023-11-20T18:59:44.422Z,2.78
2023-11-20T19:02:16.091Z,2.83
2023-11-20T19:04:46.322Z,2.84
2023-11-20T19:07:16.296Z,2.86
2023-11-20T19:09:46.102Z,2.87
2023-11-20T19:12:16.011Z,2.84
2023-11-20T19:14:45.800Z,2.83
2023-11-20T19:17:17.214Z,2.78
2023-11-20T19:19:47.063Z,2.79
2023-11-20T19:22:17.041Z,2.76
2023-11-20T19:24:47.825Z,2.75
2023-11-20T19:27:17.793Z,2.81
2023-11-20T19:29:47.600Z,2.73
2023-11-20T19:32:18.988Z,2.78
2023-11-20T19:34:48.915Z,2.65
2023-11-20T19:37:18.756Z,2.59
2023-11-20T19:39:49.064Z,2.51
2023-11-20T19:42:19.062Z,2.48
2023-11-20T19:44:49.764Z,2.38
2023-11-20T19:47:21.373Z,2.31
2023-11-20T19:49:51.380Z,2.18
2023-11-20T19:52:25.193Z,2.21
2023-11-20T19:54:55.216Z,2.12
2023-11-20T19:57:25.189Z,2.06
2023-11-20T19:59:55.051Z,2.18
2023-11-20T20:02:26.418Z,2.36
2023-11-20T20:04:56.287Z,2.58
2023-11-20T20:07:27.212Z,2.72
2023-11-20T20:09:57.133Z,2.73
2023-11-20T20:12:27.041Z,2.72
2023-11-20T20:14:56.886Z,2.72
2023-11-20T20:17:28.277Z,2.72
2023-11-20T20:19:58.087Z,2.68
2023-11-20T20:22:28.418Z,2.65
2023-11-20T20:24:58.335Z,2.65
2023-11-20T20:27:28.281Z,2.56
2023-11-20T20:29:58.710Z,2.51
2023-11-20T20:32:30.826Z,2.54
2023-11-20T20:35:00.839Z,2.63
2023-11-20T20:37:33.318Z,2.63
2023-11-20T20:40:03.483Z,2.70
2023-11-20T20:42:33.461Z,2.64
2023-11-20T20:45:03.370Z,2.66
2023-11-20T20:47:34.959Z,2.60
2023-11-20T20:50:04.921Z,2.49
2023-11-20T20:52:34.772Z,2.40
2023-11-20T20:55:03.596Z,2.37
2023-11-20T20:57:34.828Z,2.30
2023-11-20T21:00:10.252Z,2.22
2023-11-20T21:02:41.605Z,2.22
2023-11-20T21:05:12.974Z,2.25
2023-11-20T21:07:43.425Z,2.24
2023-11-20T21:10:13.831Z,2.24
2023-11-20T21:12:43.876Z,2.24
2023-11-20T21:15:15.989Z,2.16
2023-11-20T21:17:50.223Z,2.04
2023-11-20T21:20:21.579Z,1.94
2023-11-20T21:22:52.134Z,1.93
2023-11-20T21:25:24.498Z,1.93
2023-11-20T21:27:54.578Z,1.88
2023-11-20T21:30:24.481Z,1.89
2023-11-20T21:32:56.108Z,1.95
2023-11-20T21:35:37.075Z,1.99
2023-11-20T21:38:13.501Z,1.89
2023-11-20T21:40:43.335Z,1.83
2023-11-20T21:43:15.632Z,1.82
2023-11-20T21:47:12.315Z,1.76
2023-11-20T21:49:42.804Z,1.69
2023-11-20T21:52:13.193Z,1.54
2023-11-20T21:54:42.961Z,1.52
2023-11-20T21:57:12.713Z,1.50
2023-11-20T21:59:44.100Z,1.47
2023-11-20T22:02:15.538Z,1.39
2023-11-20T22:04:45.523Z,1.36
2023-11-20T22:07:20.159Z,1.34
2023-11-20T22:09:50.007Z,1.37
2023-11-20T22:12:19.773Z,1.29
2023-11-20T22:14:49.762Z,1.24
2023-11-20T22:17:21.065Z,1.15
2023-11-20T22:19:50.944Z,1.02
2023-11-20T22:22:21.014Z,1.07
2023-11-20T22:24:51.406Z,1.07
2023-11-20T22:27:21.483Z,0.97
2023-11-20T22:29:51.301Z,0.95
2023-11-20T22:32:23.532Z,0.90
2023-11-20T22:35:09.652Z,0.89
2023-11-20T22:37:43.953Z,0.89
2023-11-20T22:40:17.539Z,0.83
2023-11-20T22:42:48.151Z,0.81
2023-11-20T22:45:18.033Z,0.85
2023-11-20T22:47:49.514Z,0.78
2023-11-20T22:50:19.475Z,0.76
2023-11-20T22:52:49.662Z,0.80
2023-11-20T22:55:19.929Z,0.63
2023-11-20T22:57:50.250Z,0.68
2023-11-20T23:00:26.679Z,0.60
2023-11-20T23:02:58.238Z,0.54
2023-11-20T23:05:28.109Z,0.64
2023-11-20T23:07:57.918Z,0.69
2023-11-20T23:10:27.845Z,0.65
2023-11-20T23:12:57.843Z,0.56
2023-11-20T23:15:27.705Z,0.54
2023-11-20T23:17:59.988Z,0.54
2023-11-20T23:20:30.142Z,0.54
2023-11-20T23:23:00.064Z,0.43
2023-11-20T23:25:29.977Z,0.41
2023-11-20T23:28:01.741Z,0.37
2023-11-20T23:30:32.704Z,0.33
2023-11-20T23:33:05.403Z,0.33
2023-11-20T23:35:35.601Z,0.37
2023-11-20T23:38:05.364Z,0.33
2023-11-20T23:40:35.286Z,0.36
2023-11-20T23:43:06.163Z,0.37
2023-11-20T23:45:36.042Z,0.29
2023-11-20T23:48:09.168Z,0.25
2023-11-20T23:50:39.686Z,0.22
2023-11-20T23:53:10.108Z,0.20
2023-11-20T23:55:39.889Z,0.07
2023-11-20T23:58:09.930Z,0.05
